createdAt,value
2022-11-18T00:01:27.700Z,38.50
2022-11-18T00:03:56.090Z,42.50
2022-11-18T00:06:27.113Z,38.50
2022-11-18T00:08:55.918Z,28.92
2022-11-18T00:11:45.454Z,31.90
2022-11-18T00:14:19.260Z,25.23
2022-11-18T00:17:00.110Z,25.95
2022-11-18T00:19:29.927Z,26.95
2022-11-18T00:21:58.299Z,28.73
2022-11-18T00:24:27.137Z,26.88
2022-11-18T00:26:56.182Z,29.10
2022-11-18T00:29:29.420Z,26.00
2022-11-18T00:34:26.690Z,24.83
2022-11-18T00:36:55.227Z,32.15
2022-11-18T00:39:23.498Z,23.75
2022-11-18T00:42:09.846Z,24.20
2022-11-18T00:44:38.637Z,22.50
2022-11-18T00:47:07.395Z,22.05
2022-11-18T00:49:36.050Z,20.80
2022-11-18T00:52:04.437Z,22.10
2022-11-18T00:54:32.966Z,28.33
2022-11-18T00:57:01.885Z,28.52
2022-11-18T00:59:29.886Z,34.88
2022-11-18T01:01:58.602Z,28.25
2022-11-18T01:04:27.164Z,28.88
2022-11-18T01:07:38.829Z,25.92
2022-11-18T01:10:25.418Z,24.45
2022-11-18T01:13:12.408Z,24.40
2022-11-18T01:15:41.781Z,30.80
2022-11-18T01:18:10.487Z,27.13
2022-11-18T01:20:38.811Z,24.75
2022-11-18T01:23:07.745Z,23.55
2022-11-18T01:25:38.305Z,25.58
2022-11-18T01:28:06.697Z,26.73
2022-11-18T01:30:36.504Z,28.60
2022-11-18T01:33:05.676Z,25.80
2022-11-18T01:35:38.932Z,24.25
2022-11-18T01:38:08.614Z,23.17
2022-11-18T01:40:38.705Z,20.55
2022-11-18T01:43:15.954Z,19.02
2022-11-18T01:45:47.259Z,21.65
2022-11-18T01:48:33.790Z,24.08
2022-11-18T01:51:13.525Z,20.52
2022-11-18T01:53:50.562Z,16.52
2022-11-18T01:56:24.028Z,30.20
2022-11-18T01:59:06.900Z,17.42
2022-11-18T02:01:35.453Z,19.58
2022-11-18T02:04:04.362Z,20.02
2022-11-18T02:06:33.457Z,18.75
2022-11-18T02:09:02.725Z,19.73
2022-11-18T02:11:50.626Z,19.58
2022-11-18T02:14:28.646Z,19.90
2022-11-18T02:17:03.331Z,18.73
2022-11-18T02:19:52.121Z,17.30
2022-11-18T02:22:38.761Z,19.42
2022-11-18T02:25:26.808Z,19.08
2022-11-18T02:28:32.971Z,19.88
2022-11-18T02:31:17.598Z,19.75
2022-11-18T02:33:55.755Z,19.17
2022-11-18T02:36:39.213Z,20.67
2022-11-18T02:39:19.340Z,19.75
2022-11-18T02:41:50.030Z,20.05
2022-11-18T02:44:20.979Z,19.77
2022-11-18T02:46:56.181Z,20.13
2022-11-18T02:49:32.996Z,19.17
2022-11-18T02:52:02.737Z,19.75
2022-11-18T02:54:33.071Z,18.88
2022-11-18T02:57:03.288Z,20.13
2022-11-18T02:59:31.879Z,19.85
2022-11-18T03:02:00.485Z,20.45
2022-11-18T03:04:29.853Z,18.92
2022-11-18T03:07:32.778Z,19.80
2022-11-18T03:10:02.210Z,21.00
2022-11-18T03:13:03.111Z,21.50
2022-11-18T03:15:34.417Z,18.85
2022-11-18T03:18:08.376Z,19.17
2022-11-18T03:20:46.630Z,18.75
2022-11-18T03:23:21.052Z,18.30
2022-11-18T03:25:58.273Z,16.35
2022-11-18T03:28:44.063Z,18.00
2022-11-18T03:31:51.057Z,20.55
2022-11-18T03:34:23.792Z,19.75
2022-11-18T03:37:00.354Z,20.02
2022-11-18T03:39:34.732Z,18.15
2022-11-18T03:42:12.600Z,17.90
2022-11-18T03:44:52.113Z,19.77
2022-11-18T03:47:35.060Z,17.65
2022-11-18T03:50:35.458Z,17.67
2022-11-18T03:53:05.727Z,18.35
2022-11-18T03:55:40.289Z,20.52
2022-11-18T03:58:17.974Z,20.75
2022-11-18T04:00:50.299Z,17.25
2022-11-18T04:03:18.810Z,17.55
2022-11-18T04:05:52.013Z,18.17
2022-11-18T04:08:27.878Z,17.77
2022-11-18T04:11:00.360Z,18.77
2022-11-18T04:13:33.172Z,18.17
2022-11-18T04:16:01.780Z,17.35
2022-11-18T04:18:29.750Z,15.80
2022-11-18T04:20:57.782Z,16.38
2022-11-18T04:23:26.459Z,14.77
2022-11-18T04:25:54.774Z,14.35
2022-11-18T04:28:23.083Z,14.82
2022-11-18T04:30:51.799Z,14.80
2022-11-18T04:33:19.761Z,14.63
2022-11-18T04:35:48.117Z,14.73
2022-11-18T04:38:21.654Z,14.02
2022-11-18T04:40:49.938Z,13.82
2022-11-18T04:43:18.320Z,16.73
2022-11-18T04:45:46.227Z,14.95
2022-11-18T04:48:14.550Z,15.32
2022-11-18T04:50:42.882Z,15.07
2022-11-18T04:53:10.866Z,16.23
2022-11-18T04:55:39.336Z,19.15
2022-11-18T04:58:07.332Z,18.23
2022-11-18T05:00:36.007Z,17.17
2022-11-18T05:03:04.216Z,19.13
2022-11-18T05:05:35.409Z,16.48
2022-11-18T05:08:03.544Z,17.13
2022-11-18T05:10:31.548Z,16.00
2022-11-18T05:13:00.131Z,16.08
2022-11-18T05:15:28.633Z,15.52
2022-11-18T05:17:56.752Z,14.85
2022-11-18T05:20:24.676Z,13.80
2022-11-18T05:22:52.661Z,13.07
2022-11-18T05:25:20.591Z,14.90
2022-11-18T05:27:48.657Z,14.75
2022-11-18T05:30:16.771Z,13.25
2022-11-18T05:32:44.877Z,14.73
2022-11-18T05:35:13.666Z,13.82
2022-11-18T05:37:41.702Z,13.50
2022-11-18T05:40:10.359Z,14.45
2022-11-18T05:42:57.018Z,17.75
2022-11-18T05:45:25.349Z,16.55
2022-11-18T05:48:04.639Z,15.98
2022-11-18T05:50:35.338Z,16.08
2022-11-18T05:53:05.104Z,16.52
2022-11-18T05:56:13.062Z,14.10
2022-11-18T05:58:41.494Z,17.98
2022-11-18T06:01:12.387Z,13.88
2022-11-18T06:03:42.022Z,17.15
2022-11-18T06:06:14.236Z,13.13
2022-11-18T06:08:48.799Z,14.52
2022-11-18T06:11:19.878Z,15.07
2022-11-18T06:14:15.025Z,14.68
2022-11-18T06:16:49.292Z,14.50
2022-11-18T06:19:18.056Z,12.95
2022-11-18T06:21:47.930Z,13.85
2022-11-18T06:24:16.549Z,13.45
2022-11-18T06:26:46.031Z,13.27
2022-11-18T06:29:19.438Z,13.60
2022-11-18T06:31:49.973Z,14.43
2022-11-18T06:34:19.564Z,14.40
2022-11-18T06:36:47.496Z,14.32
2022-11-18T06:39:16.456Z,13.48
2022-11-18T06:41:44.808Z,13.15
2022-11-18T06:44:13.791Z,12.77
2022-11-18T06:46:57.355Z,13.60
2022-11-18T06:49:26.963Z,13.68
2022-11-18T06:51:56.275Z,13.43
2022-11-18T06:54:24.650Z,13.93
2022-11-18T06:56:52.653Z,14.77
2022-11-18T06:59:24.181Z,15.32
2022-11-18T07:01:53.534Z,14.57
2022-11-18T07:04:22.242Z,15.25
2022-11-18T07:06:50.192Z,15.10
2022-11-18T07:09:20.055Z,16.15
2022-11-18T07:11:48.487Z,14.18
2022-11-18T07:14:16.712Z,15.80
2022-11-18T07:16:44.804Z,13.85
2022-11-18T07:19:14.252Z,14.20
2022-11-18T07:21:43.589Z,14.30
2022-11-18T07:24:14.455Z,15.95
2022-11-18T07:26:43.422Z,16.55
2022-11-18T07:29:12.577Z,15.77
2022-11-18T07:31:41.042Z,16.40
2022-11-18T07:34:09.434Z,17.40
2022-11-18T07:36:37.894Z,16.75
2022-11-18T07:39:07.421Z,12.98
2022-11-18T07:41:36.987Z,15.38
2022-11-18T07:44:07.163Z,14.07
2022-11-18T07:46:37.645Z,13.05
2022-11-18T07:49:09.448Z,11.80
2022-11-18T07:51:40.484Z,13.40
2022-11-18T07:54:10.898Z,11.63
2022-11-18T07:56:39.942Z,13.05
2022-11-18T07:59:08.113Z,12.10
2022-11-18T08:01:36.295Z,11.52
2022-11-18T08:04:11.119Z,13.23
2022-11-18T08:06:39.781Z,12.88
2022-11-18T08:09:09.396Z,13.88
2022-11-18T08:11:37.956Z,12.88
2022-11-18T08:14:06.875Z,13.38
2022-11-18T08:16:35.840Z,17.40
2022-11-18T08:19:04.367Z,17.38
2022-11-18T08:21:32.360Z,17.17
2022-11-18T08:24:00.728Z,15.68
2022-11-18T08:26:29.631Z,14.95
2022-11-18T08:28:58.516Z,14.63
2022-11-18T08:31:28.294Z,19.30
2022-11-18T08:34:01.307Z,19.63
2022-11-18T08:36:32.671Z,18.83
2022-11-18T08:39:02.309Z,19.70
2022-11-18T08:41:39.530Z,16.58
2022-11-18T08:44:10.359Z,14.57
2022-11-18T08:46:38.605Z,29.17
2022-11-18T08:49:07.115Z,17.45
2022-11-18T08:51:36.139Z,14.82
2022-11-18T08:54:04.272Z,13.30
2022-11-18T08:56:32.497Z,15.38
2022-11-18T08:59:00.455Z,14.70
2022-11-18T09:01:30.237Z,14.93
2022-11-18T09:03:58.505Z,23.45
2022-11-18T09:06:26.814Z,17.05
2022-11-18T09:08:55.675Z,19.52
2022-11-18T09:11:26.705Z,18.83
2022-11-18T09:16:44.951Z,22.85
2022-11-18T09:19:45.632Z,20.55
2022-11-18T09:22:05.062Z,15.68
2022-11-18T09:24:33.837Z,12.05
2022-11-18T09:27:10.822Z,13.27
2022-11-18T09:29:41.786Z,15.63
2022-11-18T09:32:09.799Z,16.95
2022-11-18T09:34:37.903Z,18.20
2022-11-18T09:37:06.742Z,17.65
2022-11-18T09:39:38.806Z,15.57
2022-11-18T09:42:15.990Z,17.60
2022-11-18T09:45:16.100Z,15.43
2022-11-18T09:47:47.057Z,15.80
2022-11-18T09:53:16.716Z,15.43
2022-11-18T09:55:46.739Z,12.52
2022-11-18T09:58:24.134Z,11.85
2022-11-18T10:00:52.695Z,12.07
2022-11-18T10:03:26.254Z,11.88
2022-11-18T10:06:07.289Z,11.40
2022-11-18T10:09:03.183Z,11.75
2022-11-18T10:12:09.981Z,11.80
2022-11-18T10:15:35.632Z,12.38
2022-11-18T10:18:38.262Z,18.15
2022-11-18T10:21:30.337Z,19.73
2022-11-18T10:24:20.527Z,20.08
2022-11-18T10:26:55.999Z,18.20
2022-11-18T10:29:25.529Z,18.55
2022-11-18T10:32:04.997Z,18.77
2022-11-18T10:34:34.854Z,16.65
2022-11-18T10:37:13.451Z,15.60
2022-11-18T10:40:22.926Z,13.85
2022-11-18T10:42:51.440Z,11.07
2022-11-18T10:45:22.783Z,8.60
2022-11-18T10:48:09.556Z,7.97
2022-11-18T10:50:40.665Z,7.50
2022-11-18T10:53:29.025Z,8.23
2022-11-18T10:56:03.402Z,7.53
2022-11-18T10:58:37.973Z,8.35
2022-11-18T11:01:25.289Z,7.95
2022-11-18T11:04:18.729Z,7.07
2022-11-18T11:06:46.955Z,6.00
2022-11-18T11:09:15.902Z,5.90
2022-11-18T11:12:23.087Z,5.00
2022-11-18T11:14:57.446Z,4.65
2022-11-18T11:17:39.472Z,3.50
2022-11-18T11:20:21.742Z,2.60
2022-11-18T11:22:50.770Z,1.80
2022-11-18T11:28:25.345Z,2.17
2022-11-18T11:31:13.330Z,2.38
2022-11-18T11:33:50.930Z,2.15
2022-11-18T11:36:43.989Z,2.65
2022-11-18T11:39:32.993Z,2.45
2022-11-18T11:42:19.326Z,2.65
2022-11-18T11:44:59.344Z,2.83
2022-11-18T11:47:47.215Z,2.10
2022-11-18T11:50:27.087Z,2.35
2022-11-18T11:53:45.443Z,2.40
2022-11-18T11:56:34.320Z,2.17
2022-11-18T11:59:02.766Z,2.30
2022-11-18T12:01:46.483Z,2.55
2022-11-18T12:04:23.215Z,2.63
2022-11-18T12:06:54.617Z,3.53
2022-11-18T12:09:39.597Z,2.00
2022-11-18T12:12:35.248Z,2.55
2022-11-18T12:15:30.551Z,2.40
2022-11-18T12:18:27.036Z,1.95
2022-11-18T12:20:55.657Z,2.70
2022-11-18T12:23:29.460Z,2.95
2022-11-18T12:26:04.424Z,2.72
2022-11-18T12:28:42.960Z,2.22
2022-11-18T12:31:23.241Z,2.83
2022-11-18T12:33:58.045Z,2.55
2022-11-18T12:36:30.509Z,3.15
2022-11-18T12:39:00.109Z,3.33
2022-11-18T12:41:59.267Z,2.63
2022-11-18T12:44:30.025Z,3.13
2022-11-18T12:47:00.104Z,4.80
2022-11-18T12:49:29.002Z,2.45
2022-11-18T12:52:02.055Z,3.42
2022-11-18T12:54:40.247Z,4.00
2022-11-18T12:57:21.430Z,2.60
2022-11-18T12:59:50.310Z,2.78
2022-11-18T13:02:29.678Z,2.65
2022-11-18T13:05:09.727Z,3.95
2022-11-18T13:08:05.831Z,3.70
2022-11-18T13:10:36.249Z,3.15
2022-11-18T13:13:07.441Z,2.97
2022-11-18T13:16:18.183Z,4.00
2022-11-18T13:18:54.507Z,3.72
2022-11-18T13:21:46.936Z,4.20
2022-11-18T13:24:23.030Z,3.33
2022-11-18T13:26:59.984Z,3.53
2022-11-18T13:29:54.328Z,4.50
2022-11-18T13:32:27.413Z,3.55
2022-11-18T13:37:29.637Z,3.55
2022-11-18T13:39:59.076Z,3.35
2022-11-18T13:42:29.848Z,3.10
2022-11-18T13:44:59.820Z,3.90
2022-11-18T13:47:37.413Z,4.28
2022-11-18T13:50:18.390Z,3.60
2022-11-18T13:52:52.140Z,3.92
2022-11-18T13:55:27.148Z,3.55
2022-11-18T13:58:24.632Z,6.50
2022-11-18T14:01:05.795Z,3.50
2022-11-18T14:03:56.258Z,3.85
2022-11-18T14:06:38.144Z,7.78
2022-11-18T14:09:26.259Z,9.68
2022-11-18T14:12:07.659Z,5.20
2022-11-18T14:14:38.276Z,5.18
2022-11-18T14:17:16.439Z,4.90
2022-11-18T14:19:46.399Z,6.38
2022-11-18T14:22:18.954Z,5.82
2022-11-18T14:25:00.870Z,4.13
2022-11-18T14:27:40.863Z,4.88
2022-11-18T14:30:28.167Z,4.82
2022-11-18T14:33:24.495Z,4.72
2022-11-18T14:36:01.270Z,4.15
2022-11-18T14:41:48.072Z,5.53
2022-11-18T14:44:17.930Z,4.90
2022-11-18T14:46:53.594Z,5.28
2022-11-18T14:49:24.177Z,5.15
2022-11-18T14:51:53.414Z,4.97
2022-11-18T14:54:26.691Z,4.32
2022-11-18T14:57:03.615Z,4.50
2022-11-18T14:59:52.153Z,4.75
2022-11-18T15:02:20.675Z,4.47
2022-11-18T15:04:52.762Z,7.03
2022-11-18T15:07:23.763Z,4.82
2022-11-18T15:09:52.758Z,5.13
2022-11-18T15:12:20.724Z,5.68
2022-11-18T15:14:49.143Z,4.93
2022-11-18T15:17:20.335Z,5.47
2022-11-18T15:19:48.612Z,5.88
2022-11-18T15:22:16.594Z,5.03
2022-11-18T15:24:44.739Z,6.28
2022-11-18T15:27:12.925Z,5.63
2022-11-18T15:29:41.616Z,6.22
2022-11-18T15:32:09.554Z,5.40
2022-11-18T15:34:38.052Z,5.05
2022-11-18T15:37:06.121Z,4.97
2022-11-18T15:39:35.157Z,5.90
2022-11-18T15:42:03.091Z,4.78
2022-11-18T15:44:31.283Z,6.90
2022-11-18T15:47:01.654Z,6.70
2022-11-18T15:49:30.523Z,6.75
2022-11-18T15:51:58.474Z,6.30
2022-11-18T15:54:26.531Z,8.52
2022-11-18T15:56:54.571Z,7.45
2022-11-18T15:59:23.053Z,7.50
2022-11-18T16:01:54.259Z,7.03
2022-11-18T16:04:22.654Z,6.22
2022-11-18T16:06:51.139Z,5.57
2022-11-18T16:09:19.409Z,6.90
2022-11-18T16:12:06.716Z,10.50
2022-11-18T16:14:38.489Z,6.50
2022-11-18T16:17:06.894Z,6.63
2022-11-18T16:19:35.110Z,6.65
2022-11-18T16:22:03.412Z,7.28
2022-11-18T16:24:31.535Z,6.20
2022-11-18T16:26:59.945Z,6.88
2022-11-18T16:29:28.384Z,9.10
2022-11-18T16:31:56.832Z,9.32
2022-11-18T16:34:27.333Z,7.72
2022-11-18T16:36:59.780Z,9.32
2022-11-18T16:39:29.888Z,8.13
2022-11-18T16:42:07.275Z,5.85
2022-11-18T16:44:37.927Z,7.22
2022-11-18T16:47:14.384Z,6.90
2022-11-18T16:49:44.340Z,41.15
2022-11-18T16:52:13.024Z,47.45
2022-11-18T16:54:45.386Z,32.15
2022-11-18T16:57:14.900Z,11.32
2022-11-18T16:59:43.065Z,9.43
2022-11-18T17:02:15.628Z,8.80
2022-11-18T17:04:43.993Z,10.25
2022-11-18T17:07:13.496Z,11.18
2022-11-18T17:09:41.777Z,12.30
2022-11-18T17:12:09.897Z,11.57
2022-11-18T17:14:40.129Z,11.68
2022-11-18T17:17:08.184Z,9.27
2022-11-18T17:19:36.938Z,9.00
2022-11-18T17:22:05.421Z,10.02
2022-11-18T17:24:33.817Z,8.02
2022-11-18T17:27:02.372Z,8.85
2022-11-18T17:29:30.711Z,10.98
2022-11-18T17:32:00.026Z,11.30
2022-11-18T17:34:29.215Z,8.52
2022-11-18T17:37:03.106Z,10.60
2022-11-18T17:39:35.141Z,10.27
2022-11-18T17:42:15.577Z,9.98
2022-11-18T17:44:44.843Z,10.20
2022-11-18T17:47:13.024Z,8.95
2022-11-18T17:49:41.881Z,7.85
2022-11-18T17:52:10.031Z,9.40
2022-11-18T17:54:38.583Z,7.75
2022-11-18T17:57:07.085Z,9.10
2022-11-18T17:59:35.199Z,8.40
2022-11-18T18:02:03.346Z,8.63
2022-11-18T18:04:31.283Z,7.70
2022-11-18T18:06:59.885Z,8.73
2022-11-18T18:09:30.918Z,23.42
2022-11-18T18:12:00.763Z,28.20
2022-11-18T18:14:29.063Z,30.05
2022-11-18T18:16:57.215Z,36.22
2022-11-18T18:19:26.003Z,29.55
2022-11-18T18:21:54.188Z,28.48
2022-11-18T18:24:22.755Z,25.42
2022-11-18T18:26:51.283Z,24.08
2022-11-18T18:29:19.826Z,25.80
2022-11-18T18:31:48.710Z,41.33
2022-11-18T18:34:17.626Z,42.85
2022-11-18T18:36:46.240Z,42.35
2022-11-18T18:39:14.261Z,48.08
2022-11-18T18:41:42.216Z,41.60
2022-11-18T18:44:16.827Z,45.20
2022-11-18T18:46:46.951Z,43.47
2022-11-18T18:49:20.366Z,41.05
2022-11-18T18:51:55.657Z,35.40
2022-11-18T18:54:23.569Z,47.80
2022-11-18T18:56:52.668Z,39.20
2022-11-18T18:59:20.787Z,46.33
2022-11-18T19:01:50.129Z,43.88
2022-11-18T19:04:18.873Z,49.28
2022-11-18T19:06:53.676Z,45.22
2022-11-18T19:09:27.125Z,52.97
2022-11-18T19:12:14.109Z,42.55
2022-11-18T19:14:42.660Z,42.42
2022-11-18T19:17:12.435Z,47.17
2022-11-18T19:20:00.966Z,37.67
2022-11-18T19:22:32.508Z,32.85
2022-11-18T19:25:01.649Z,37.47
2022-11-18T19:27:31.236Z,32.03
2022-11-18T19:30:00.772Z,37.60
2022-11-18T19:32:29.257Z,36.58
2022-11-18T19:34:57.359Z,31.65
2022-11-18T19:37:26.367Z,34.83
2022-11-18T19:39:55.181Z,37.60
2022-11-18T19:42:50.246Z,42.33
2022-11-18T19:45:19.521Z,49.92
2022-11-18T19:47:47.483Z,53.95
2022-11-18T19:50:16.799Z,47.72
2022-11-18T19:52:47.982Z,43.45
2022-11-18T19:55:15.980Z,42.83
2022-11-18T19:57:44.338Z,58.45
2022-11-18T20:00:12.630Z,56.58
2022-11-18T20:02:41.951Z,51.85
2022-11-18T20:05:53.375Z,34.28
2022-11-18T20:08:26.465Z,24.10
2022-11-18T20:10:54.499Z,22.67
2022-11-18T20:13:23.187Z,21.52
2022-11-18T20:15:51.079Z,23.52
2022-11-18T20:18:22.264Z,25.73
2022-11-18T20:20:50.374Z,30.95
2022-11-18T20:23:19.119Z,29.58
2022-11-18T20:25:47.168Z,37.50
2022-11-18T20:28:15.150Z,38.08
2022-11-18T20:30:45.625Z,37.42
2022-11-18T20:33:13.492Z,39.63
2022-11-18T20:35:41.439Z,42.58
2022-11-18T20:38:10.530Z,41.90
2022-11-18T20:40:38.948Z,38.28
2022-11-18T20:43:12.774Z,47.60
2022-11-18T20:45:43.737Z,56.80
2022-11-18T20:48:12.027Z,63.22
2022-11-18T20:50:40.367Z,78.80
2022-11-18T20:53:08.744Z,62.58
2022-11-18T20:55:40.314Z,72.95
2022-11-18T20:58:09.166Z,80.20
2022-11-18T21:00:37.822Z,77.93
2022-11-18T21:03:06.320Z,64.25
2022-11-18T21:05:35.793Z,62.35
2022-11-18T21:08:04.000Z,40.30
2022-11-18T21:10:33.847Z,26.55
2022-11-18T21:13:20.730Z,51.00
2022-11-18T21:15:49.487Z,28.02
2022-11-18T21:18:17.387Z,40.13
2022-11-18T21:21:04.618Z,39.35
2022-11-18T21:23:33.659Z,33.05
2022-11-18T21:26:02.657Z,31.90
2022-11-18T21:28:31.265Z,38.53
2022-11-18T21:30:59.812Z,40.08
2022-11-18T21:33:28.194Z,63.40
2022-11-18T21:35:59.444Z,54.30
2022-11-18T21:38:27.434Z,59.10
2022-11-18T21:40:55.433Z,55.80
2022-11-18T21:43:50.194Z,54.40
2022-11-18T21:46:16.009Z,55.17
2022-11-18T21:48:44.987Z,53.08
2022-11-18T21:51:15.427Z,55.33
2022-11-18T21:53:43.731Z,57.92
2022-11-18T21:56:17.747Z,46.22
2022-11-18T21:58:47.419Z,33.00
2022-11-18T22:01:34.071Z,31.75
2022-11-18T22:04:04.952Z,31.15
2022-11-18T22:06:34.503Z,34.70
2022-11-18T22:09:03.670Z,33.63
2022-11-18T22:11:31.917Z,29.75
2022-11-18T22:14:00.628Z,26.88
2022-11-18T22:16:28.574Z,27.05
2022-11-18T22:19:01.456Z,26.80
2022-11-18T22:21:33.307Z,24.88
2022-11-18T22:24:01.722Z,27.42
2022-11-18T22:26:30.158Z,26.80
2022-11-18T22:28:58.880Z,22.98
2022-11-18T22:31:28.120Z,25.42
2022-11-18T22:33:56.870Z,25.20
2022-11-18T22:36:26.757Z,28.55
2022-11-18T22:38:55.474Z,33.17
2022-11-18T22:41:44.611Z,34.97
2022-11-18T22:44:15.274Z,33.33
2022-11-18T22:46:45.613Z,19.48
2022-11-18T22:49:14.108Z,30.50
2022-11-18T22:51:42.413Z,29.08
2022-11-18T22:54:40.488Z,32.42
2022-11-18T22:56:59.384Z,20.23
2022-11-18T22:59:28.642Z,25.33
2022-11-18T23:01:56.642Z,39.28
2022-11-18T23:04:25.488Z,37.58
2022-11-18T23:06:53.502Z,39.53
2022-11-18T23:09:21.754Z,33.30
2022-11-18T23:12:08.393Z,21.67
2022-11-18T23:14:37.380Z,21.33
2022-11-18T23:17:05.736Z,21.25
2022-11-18T23:19:37.010Z,22.00
2022-11-18T23:22:04.960Z,22.67
2022-11-18T23:24:33.324Z,19.20
2022-11-18T23:27:01.191Z,18.50
2022-11-18T23:29:29.688Z,20.95
2022-11-18T23:31:58.065Z,17.92
2022-11-18T23:34:26.243Z,18.05
2022-11-18T23:36:54.656Z,19.20
2022-11-18T23:39:22.825Z,18.48
2022-11-18T23:41:51.527Z,18.80
2022-11-18T23:44:40.701Z,18.17
2022-11-18T23:47:08.658Z,20.13
2022-11-18T23:49:36.606Z,18.58
2022-11-18T23:52:04.845Z,19.85
2022-11-18T23:54:33.465Z,19.80
2022-11-18T23:57:04.547Z,18.33
2022-11-18T23:59:34.219Z,16.77
